Aérodrome :
LOGIN :

S'inscrire | Disclaimer

   EN    FR    IT 

 










Légende :    VFR   VFR Marginal   IFR   IFR Intensif   IFR Très Intensif
Visi : 
Plafond : 
>= 8 km
>= 3000ft
5 à 8 km
1000 à 3000 ft
1500m à 5 km
500 à 1000 ft
800 à 1500m
200 à 500 ft
< 800m
< 200 ft
Symboles :   Orages  Brouillard  Fortes neiges  Fortes précipitations  Vent > 20 kt
SIGMETs :   Divers  Orages  Givrage  Turbulence  Onde Orograph.  Cendres Volcan.






- Altitude de l'aérodrome : 38 ft
- Code IATA : TRE


EGPU - Tiree

DERNIER METAR :
  • 020150Z AUTO 27016KT 240V300 9999 FEW018/// BKN039/// 08/05 Q1017 RERA

METARs EXPIRÉS :
  • 020120Z AUTO 28018KT 250V310 1900 HZ SCT007/// BKN016/// BKN024/// 08/07 Q1018 RERA
  • 020050Z AUTO 28014KT 250V310 0800 -RADZ BKN003/// SCT011/// 08/07 Q1018
  • 020020Z AUTO 28014KT 250V310 1000 BKN004/// SCT009/// 09/08 Q1018
  • 012350Z AUTO 24015KT 9999 BKN009/// 10/09 Q1019
  • 012320Z AUTO 24014KT 210V270 9999 BKN009/// SCT033/// 10/09 Q1019 REDZ

Prévision TAF périmée.



MET'MAP, la Météo Aéronautique d'un coup d'oeil ! - Copyright ORBIFLY Décembre 2007 - Disclaimer

ORBIFLY MET'MAP TEAM :

Programmation & Développement : Alexandra Zaïnal
Sur une idée originale de : Baudouin d'Aumeries
Assistance à la programmation : Marc-Olivier Méhu
Soutien technique & logistique : Manuel Goepfert

Contact : metmap@orbifly.com




SOURCES & CREDITS :

   NOAA